Time;durP1;ratioP1;P1;durP2;ratioP2;P2;SDS_P1;SDS_P2;PMS_P1;PMS_P2;Temp;Humidity;BMP_temperature;BMP_pressure;BME280_temperature;BME280_humidity;BME280_pressure;Samples;Min_cycle;Max_cycle;Signal;HPM_P1;HPM_P2
2022/09/18 00:01:43;;;;;;;6.33;1.63;;;;;;;;;;4930256;28;20197;-91
2022/09/18 00:04:12;;;;;;;9.50;2.03;;;;;;;;;;4930217;29;20195;-89
2022/09/18 00:06:39;;;;;;;8.50;1.93;;;;;;;;;;4945511;28;20202;-88
2022/09/18 00:09:07;;;;;;;6.77;1.70;;;;;;;;;;4931826;29;20213;-89
2022/09/18 00:11:35;;;;;;;8.53;1.70;;;;;;;;;;4945468;28;20189;-89
2022/09/18 00:14:01;;;;;;;7.30;2.00;;;;;;;;;;4913996;29;20198;-89
2022/09/18 00:16:26;;;;;;;5.37;1.53;;;;;;;;;;4929951;29;20604;-89
2022/09/18 00:18:53;;;;;;;8.67;1.40;;;;;;;;;;4929732;28;20194;-88
2022/09/18 00:21:21;;;;;;;13.20;1.70;;;;;;;;;;4946078;28;20618;-89
2022/09/18 00:23:47;;;;;;;7.13;1.40;;;;;;;;;;4929819;28;20221;-89
2022/09/18 00:26:14;;;;;;;7.23;1.60;;;;;;;;;;4929621;29;20237;-88
2022/09/18 00:28:40;;;;;;;7.10;1.53;;;;;;;;;;4945386;28;21326;-89
2022/09/18 00:31:10;;;;;;;7.50;1.50;;;;;;;;;;4929691;29;20623;-90
2022/09/18 00:33:38;;;;;;;6.90;1.63;;;;;;;;;;4946039;28;20187;-89
2022/09/18 00:36:05;;;;;;;10.30;1.63;;;;;;;;;;4929178;28;20281;-89
2022/09/18 00:38:31;;;;;;;7.33;1.30;;;;;;;;;;4930663;29;20201;-88
2022/09/18 00:41:01;;;;;;;5.73;1.70;;;;;;;;;;4929857;29;20198;-87
2022/09/18 00:43:29;;;;;;;6.30;1.30;;;;;;;;;;4929780;29;20191;-88
2022/09/18 00:45:57;;;;;;;7.27;1.60;;;;;;;;;;4930548;29;20639;-89
2022/09/18 00:48:24;;;;;;;6.10;1.10;;;;;;;;;;4945155;28;20241;-87
2022/09/18 00:50:50;;;;;;;3.90;1.30;;;;;;;;;;4945080;28;20810;-87
2022/09/18 00:53:17;;;;;;;4.93;1.30;;;;;;;;;;4930648;29;20646;-89
2022/09/18 00:55:43;;;;;;;7.83;1.50;;;;;;;;;;4928916;29;20216;-90
2022/09/18 00:58:10;;;;;;;8.13;1.70;;;;;;;;;;4929846;28;20198;-89
2022/09/18 01:00:37;;;;;;;8.47;1.70;;;;;;;;;;4930329;29;20194;-88
2022/09/18 01:03:03;;;;;;;6.93;1.37;;;;;;;;;;4928706;29;20209;-89
2022/09/18 01:05:55;;;;;;;8.30;1.40;;;;;;;;;;4929231;29;20299;-88
2022/09/18 01:08:21;;;;;;;6.33;1.40;;;;;;;;;;4927415;29;20216;-87
2022/09/18 01:10:58;;;;;;;9.27;1.63;;;;;;;;;;4928972;29;20860;-89
2022/09/18 01:13:33;;;;;;;7.37;1.80;;;;;;;;;;4929275;28;20228;-88
2022/09/18 01:16:05;;;;;;;5.70;1.93;;;;;;;;;;4929403;29;20224;-90
2022/09/18 01:18:54;;;;;;;10.50;1.90;;;;;;;;;;4945472;28;20186;-88
2022/09/18 01:21:27;;;;;;;4.53;1.23;;;;;;;;;;4948295;28;20228;-88
2022/09/18 01:24:13;;;;;;;8.73;2.17;;;;;;;;;;4929302;29;20284;-89
2022/09/18 01:26:54;;;;;;;7.03;1.13;;;;;;;;;;4944612;28;20206;-89
2022/09/18 01:29:29;;;;;;;5.70;1.20;;;;;;;;;;4929383;29;20190;-88
2022/09/18 01:32:15;;;;;;;9.87;1.73;;;;;;;;;;4929087;29;20551;-88
2022/09/18 01:34:46;;;;;;;10.97;1.63;;;;;;;;;;4925582;29;20194;-89
2022/09/18 01:37:32;;;;;;;3.43;1.40;;;;;;;;;;4944585;28;20214;-89
2022/09/18 01:40:02;;;;;;;5.43;1.30;;;;;;;;;;4945358;28;20190;-88
2022/09/18 01:42:30;;;;;;;9.00;1.70;;;;;;;;;;4928331;28;20186;-90
2022/09/18 01:44:58;;;;;;;6.27;1.20;;;;;;;;;;4928632;29;20205;-89
2022/09/18 01:47:27;;;;;;;6.20;1.77;;;;;;;;;;4928516;29;20209;-90
2022/09/18 01:49:54;;;;;;;6.70;1.33;;;;;;;;;;4944151;28;20206;-87
2022/09/18 01:52:24;;;;;;;8.33;1.40;;;;;;;;;;4928616;29;20728;-88
2022/09/18 01:54:51;;;;;;;8.30;1.80;;;;;;;;;;4945580;28;20193;-88
2022/09/18 01:57:28;;;;;;;8.73;1.23;;;;;;;;;;4932787;29;20193;-88
2022/09/18 02:00:02;;;;;;;5.17;1.67;;;;;;;;;;4932998;28;20202;-89
2022/09/18 02:02:35;;;;;;;10.57;2.00;;;;;;;;;;4932223;29;20182;-88
2022/09/18 02:05:05;;;;;;;9.17;1.67;;;;;;;;;;4932014;29;20665;-88
2022/09/18 02:07:40;;;;;;;12.97;2.17;;;;;;;;;;4932024;29;20189;-89
2022/09/18 02:10:07;;;;;;;7.03;1.80;;;;;;;;;;4933346;29;20210;-89
2022/09/18 02:12:34;;;;;;;7.37;2.00;;;;;;;;;;4947898;28;20191;-88
2022/09/18 02:15:02;;;;;;;6.80;2.10;;;;;;;;;;4933279;29;20244;-89
2022/09/18 02:17:31;;;;;;;9.70;1.80;;;;;;;;;;4932671;29;20237;-87
2022/09/18 02:20:12;;;;;;;7.73;1.67;;;;;;;;;;4932980;29;20186;-89
2022/09/18 02:22:41;;;;;;;6.33;1.43;;;;;;;;;;4932983;29;20190;-87
2022/09/18 02:27:57;;;;;;;7.77;2.10;;;;;;;;;;5144784;23;20265;-88
2022/09/18 02:30:29;;;;;;;5.77;1.77;;;;;;;;;;4999615;28;20214;-88
2022/09/18 02:33:09;;;;;;;;;;;;;;;;;;;;;
2022/09/18 02:35:40;;;;;;;7.83;1.47;;;;;;;;;;4988144;28;20202;-88
2022/09/18 02:38:11;;;;;;;6.27;1.30;;;;;;;;;;4979540;28;20188;-88
2022/09/18 02:40:53;;;;;;;5.20;1.53;;;;;;;;;;4982445;28;20197;-89
2022/09/18 02:43:38;;;;;;;8.90;1.73;;;;;;;;;;4979389;28;20192;-87
2022/09/18 02:46:11;;;;;;;4.20;1.43;;;;;;;;;;4978752;28;20212;-88
2022/09/18 02:48:46;;;;;;;10.53;1.63;;;;;;;;;;4976614;28;20188;-89
2022/09/18 02:51:20;;;;;;;6.63;1.70;;;;;;;;;;4977680;28;20216;-88
2022/09/18 02:53:53;;;;;;;8.27;1.27;;;;;;;;;;4980337;28;20176;-88
2022/09/18 02:56:32;;;;;;;5.07;1.07;;;;;;;;;;4979833;28;20216;-88
2022/09/18 02:59:06;;;;;;;8.40;1.47;;;;;;;;;;4981201;28;20254;-88
2022/09/18 03:01:32;;;;;;;8.97;1.43;;;;;;;;;;4979215;28;20204;-88
2022/09/18 03:04:03;;;;;;;5.80;1.47;;;;;;;;;;4980012;28;20184;-88
2022/09/18 03:06:32;;;;;;;6.80;1.77;;;;;;;;;;4979364;28;20205;-89
2022/09/18 03:08:58;;;;;;;3.37;1.00;;;;;;;;;;4979478;28;20191;-89
2022/09/18 03:11:27;;;;;;;6.47;1.37;;;;;;;;;;4981321;28;20207;-87
2022/09/18 03:13:53;;;;;;;6.90;1.40;;;;;;;;;;4978112;28;20188;-89
2022/09/18 03:16:21;;;;;;;5.53;1.40;;;;;;;;;;4979058;28;20341;-88
2022/09/18 03:18:47;;;;;;;7.97;1.80;;;;;;;;;;4978970;28;20195;-87
2022/09/18 03:21:13;;;;;;;5.40;1.30;;;;;;;;;;4978105;28;20312;-89
2022/09/18 03:23:39;;;;;;;6.47;1.20;;;;;;;;;;4978048;28;20292;-88
2022/09/18 03:26:05;;;;;;;6.30;1.50;;;;;;;;;;4979248;28;20216;-89
2022/09/18 03:28:33;;;;;;;7.67;1.60;;;;;;;;;;4978657;28;20970;-88
2022/09/18 03:30:59;;;;;;;5.30;1.43;;;;;;;;;;4978397;28;20240;-88
2022/09/18 03:33:25;;;;;;;6.10;1.50;;;;;;;;;;4978903;28;20177;-91
2022/09/18 03:35:51;;;;;;;7.03;1.67;;;;;;;;;;4980184;28;20252;-90
2022/09/18 03:38:17;;;;;;;5.27;1.80;;;;;;;;;;4978621;28;20190;-90
2022/09/18 03:40:46;;;;;;;5.23;1.00;;;;;;;;;;4979490;28;20613;-89
2022/09/18 03:43:12;;;;;;;4.40;1.17;;;;;;;;;;4979804;28;20742;-89
2022/09/18 03:45:38;;;;;;;6.63;1.40;;;;;;;;;;4979126;28;20666;-88
2022/09/18 03:48:06;;;;;;;5.50;1.10;;;;;;;;;;4976909;28;20193;-90
2022/09/18 03:50:32;;;;;;;3.90;1.23;;;;;;;;;;4977633;28;20212;-89
2022/09/18 03:52:58;;;;;;;9.33;1.67;;;;;;;;;;4978299;28;20253;-90
2022/09/18 03:55:24;;;;;;;7.00;1.20;;;;;;;;;;4979807;28;20200;-89
2022/09/18 03:57:50;;;;;;;7.80;1.40;;;;;;;;;;4979598;28;20227;-90
2022/09/18 04:00:16;;;;;;;6.00;1.40;;;;;;;;;;4979593;28;20216;-87
2022/09/18 04:02:43;;;;;;;4.73;1.10;;;;;;;;;;4977412;28;20283;-87
2022/09/18 04:05:09;;;;;;;5.50;1.50;;;;;;;;;;4979228;28;20193;-89
2022/09/18 04:07:35;;;;;;;5.77;1.40;;;;;;;;;;4977484;28;20196;-89
2022/09/18 04:10:01;;;;;;;7.57;1.30;;;;;;;;;;4979805;28;20236;-90
2022/09/18 04:12:27;;;;;;;6.43;1.80;;;;;;;;;;4978978;28;20692;-88
2022/09/18 04:14:54;;;;;;;7.60;1.40;;;;;;;;;;4977094;28;20235;-88
2022/09/18 04:17:20;;;;;;;6.53;1.43;;;;;;;;;;4977271;28;20185;-89
2022/09/18 04:19:46;;;;;;;5.73;1.10;;;;;;;;;;4978692;28;20243;-89
2022/09/18 04:22:12;;;;;;;4.37;1.10;;;;;;;;;;4982861;28;20191;-89
2022/09/18 04:24:38;;;;;;;4.70;1.00;;;;;;;;;;4979105;28;20566;-88
2022/09/18 04:27:04;;;;;;;5.10;1.30;;;;;;;;;;4976013;28;20239;-89
2022/09/18 04:29:31;;;;;;;7.10;1.13;;;;;;;;;;4976746;28;20216;-89
2022/09/18 04:31:57;;;;;;;5.20;1.20;;;;;;;;;;4977521;28;20328;-89
2022/09/18 04:34:23;;;;;;;8.07;1.10;;;;;;;;;;4979645;28;20259;-89
2022/09/18 04:36:49;;;;;;;7.83;1.53;;;;;;;;;;4976418;28;20617;-88
2022/09/18 04:39:15;;;;;;;9.63;1.57;;;;;;;;;;4977449;28;20188;-88
2022/09/18 04:41:44;;;;;;;5.10;1.40;;;;;;;;;;4976156;28;20242;-89
2022/09/18 04:44:10;;;;;;;4.73;1.03;;;;;;;;;;4978435;28;20188;-87
2022/09/18 04:46:37;;;;;;;5.00;1.20;;;;;;;;;;4977542;28;20355;-89
2022/09/18 04:49:03;;;;;;;3.37;1.10;;;;;;;;;;4976147;28;20181;-88
2022/09/18 04:51:29;;;;;;;4.63;0.97;;;;;;;;;;4977106;28;20216;-88
2022/09/18 04:53:55;;;;;;;10.27;1.40;;;;;;;;;;4978911;28;20565;-88
2022/09/18 04:56:21;;;;;;;10.53;1.77;;;;;;;;;;4975897;28;20575;-90
2022/09/18 04:58:47;;;;;;;6.13;1.23;;;;;;;;;;4977105;28;20287;-89
2022/09/18 05:01:13;;;;;;;5.40;1.10;;;;;;;;;;4974243;28;20200;-89
2022/09/18 05:03:39;;;;;;;5.50;1.30;;;;;;;;;;4976099;28;20200;-89
2022/09/18 05:06:07;;;;;;;5.97;1.27;;;;;;;;;;4974776;28;20223;-92
2022/09/18 05:08:36;;;;;;;3.73;1.10;;;;;;;;;;4955061;28;20196;-88
2022/09/18 05:11:03;;;;;;;6.63;1.40;;;;;;;;;;4972815;28;20227;-88
2022/09/18 05:13:29;;;;;;;5.67;1.40;;;;;;;;;;4974844;28;20184;-88
2022/09/18 05:19:00;;;;;;;7.63;1.77;;;;;;;;;;4973238;28;20510;-88
2022/09/18 05:21:29;;;;;;;8.30;1.87;;;;;;;;;;4970579;28;20715;-88
2022/09/18 05:24:00;;;;;;;9.30;1.93;;;;;;;;;;4975949;28;20201;-87
2022/09/18 05:29:47;;;;;;;;;;;;;;;;;;;;;
2022/09/18 05:32:36;;;;;;;8.30;2.07;;;;;;;;;;4925679;29;20201;-87
2022/09/18 05:43:01;;;;;;;6.57;1.83;;;;;;;;;;4959716;28;20363;-87
2022/09/18 05:45:31;;;;;;;6.20;1.97;;;;;;;;;;4949676;28;20236;-90
2022/09/18 05:48:13;;;;;;;10.43;1.90;;;;;;;;;;4946094;28;20212;-88
2022/09/18 05:50:41;;;;;;;8.37;2.27;;;;;;;;;;4947132;28;20225;-80
2022/09/18 05:53:11;;;;;;;8.23;2.20;;;;;;;;;;4946836;28;20197;-79
2022/09/18 05:55:37;;;;;;;7.37;2.00;;;;;;;;;;4946264;28;20273;-78
2022/09/18 05:58:04;;;;;;;6.67;2.00;;;;;;;;;;4943664;28;20193;-78
2022/09/18 06:00:31;;;;;;;8.03;2.20;;;;;;;;;;4946632;28;20185;-78
2022/09/18 06:03:01;;;;;;;9.47;2.10;;;;;;;;;;4946756;28;20577;-78
2022/09/18 06:05:28;;;;;;;9.90;1.73;;;;;;;;;;4946541;28;20206;-79
2022/09/18 06:07:54;;;;;;;6.97;1.83;;;;;;;;;;4946935;28;20734;-79
2022/09/18 06:10:21;;;;;;;7.70;2.17;;;;;;;;;;4945241;28;20202;-79
2022/09/18 06:12:48;;;;;;;6.13;1.60;;;;;;;;;;4944931;28;20723;-80
2022/09/18 06:15:14;;;;;;;9.50;2.17;;;;;;;;;;4946419;28;20752;-80
2022/09/18 06:17:40;;;;;;;8.23;1.90;;;;;;;;;;4945982;28;20281;-79
2022/09/18 06:20:07;;;;;;;9.03;2.07;;;;;;;;;;4946720;28;20194;-78
2022/09/18 06:22:34;;;;;;;7.27;1.60;;;;;;;;;;4945810;28;20537;-79
2022/09/18 06:25:00;;;;;;;7.20;2.20;;;;;;;;;;4946437;28;20198;-78
2022/09/18 06:27:26;;;;;;;8.10;1.93;;;;;;;;;;4945765;28;20816;-79
2022/09/18 06:29:52;;;;;;;9.23;2.30;;;;;;;;;;4946317;28;20205;-79
2022/09/18 06:32:19;;;;;;;10.07;2.53;;;;;;;;;;4944990;28;20228;-79
2022/09/18 06:34:45;;;;;;;6.90;2.03;;;;;;;;;;4946636;28;20196;-80
2022/09/18 06:37:11;;;;;;;5.83;1.60;;;;;;;;;;4944554;28;20209;-78
2022/09/18 06:39:37;;;;;;;7.00;1.97;;;;;;;;;;4946281;28;20190;-80
2022/09/18 06:42:04;;;;;;;8.27;1.83;;;;;;;;;;4949030;28;20185;-80
2022/09/18 06:44:30;;;;;;;7.73;1.93;;;;;;;;;;4947454;28;20902;-79
2022/09/18 06:46:56;;;;;;;4.87;1.97;;;;;;;;;;4948374;28;20233;-79
2022/09/18 06:49:22;;;;;;;7.00;1.47;;;;;;;;;;4949149;28;20683;-78
2022/09/18 06:51:48;;;;;;;6.33;1.63;;;;;;;;;;4946681;28;20233;-78
2022/09/18 06:54:15;;;;;;;5.97;1.67;;;;;;;;;;4949150;28;20556;-78
2022/09/18 06:56:42;;;;;;;5.50;1.53;;;;;;;;;;4946635;28;20215;-80
2022/09/18 06:59:08;;;;;;;5.07;1.60;;;;;;;;;;4948804;28;20197;-78
2022/09/18 07:01:33;;;;;;;3.47;1.50;;;;;;;;;;4948216;28;20181;-78
2022/09/18 07:04:00;;;;;;;3.53;1.47;;;;;;;;;;4948752;28;20439;-80
2022/09/18 07:06:25;;;;;;;3.33;1.20;;;;;;;;;;4948081;28;20272;-80
2022/09/18 07:08:52;;;;;;;3.27;1.13;;;;;;;;;;4946581;28;20198;-81
2022/09/18 07:11:18;;;;;;;3.70;1.00;;;;;;;;;;4947874;28;20303;-80
2022/09/18 07:13:46;;;;;;;3.73;1.27;;;;;;;;;;4948083;28;20190;-79
2022/09/18 07:16:12;;;;;;;4.30;1.30;;;;;;;;;;4947737;28;20205;-79
2022/09/18 07:18:38;;;;;;;5.07;1.30;;;;;;;;;;4947962;28;20182;-80
2022/09/18 07:21:04;;;;;;;8.17;1.47;;;;;;;;;;4947913;28;20208;-81
2022/09/18 07:23:32;;;;;;;7.57;1.50;;;;;;;;;;4947980;28;20261;-78
2022/09/18 07:26:01;;;;;;;3.40;1.20;;;;;;;;;;4948311;28;20206;-78
2022/09/18 07:28:27;;;;;;;4.70;1.67;;;;;;;;;;4948209;28;20198;-78
2022/09/18 07:30:53;;;;;;;4.70;1.20;;;;;;;;;;4947830;28;20205;-78
2022/09/18 07:33:20;;;;;;;4.53;1.43;;;;;;;;;;4947819;28;20559;-80
2022/09/18 07:35:46;;;;;;;4.50;1.30;;;;;;;;;;4948179;28;20754;-78
2022/09/18 07:38:12;;;;;;;6.93;1.43;;;;;;;;;;4947577;28;20205;-79
2022/09/18 07:40:41;;;;;;;8.20;1.53;;;;;;;;;;4946672;28;20280;-79
2022/09/18 07:43:08;;;;;;;4.13;1.20;;;;;;;;;;4947355;28;20292;-78
2022/09/18 07:45:35;;;;;;;6.57;1.53;;;;;;;;;;4946011;28;20232;-79
2022/09/18 07:48:01;;;;;;;4.63;1.20;;;;;;;;;;4946621;28;20198;-78
2022/09/18 07:50:27;;;;;;;6.83;1.30;;;;;;;;;;4949570;28;20584;-82
2022/09/18 07:52:57;;;;;;;4.50;1.17;;;;;;;;;;4947058;28;20187;-80
2022/09/18 07:55:24;;;;;;;3.40;1.30;;;;;;;;;;4950083;28;20272;-80
2022/09/18 07:57:54;;;;;;;4.67;1.40;;;;;;;;;;4949724;28;20676;-79
2022/09/18 08:00:20;;;;;;;5.47;1.67;;;;;;;;;;4948631;28;20189;-78
2022/09/18 08:02:46;;;;;;;4.20;1.40;;;;;;;;;;4948012;28;20185;-78
2022/09/18 08:05:12;;;;;;;4.37;1.53;;;;;;;;;;4950177;28;20193;-79
2022/09/18 08:07:38;;;;;;;8.27;2.40;;;;;;;;;;4948384;28;20189;-78
2022/09/18 08:10:04;;;;;;;6.03;1.10;;;;;;;;;;4949809;28;20607;-80
2022/09/18 08:12:30;;;;;;;6.10;1.57;;;;;;;;;;4946225;28;20289;-79
2022/09/18 08:14:57;;;;;;;4.27;0.93;;;;;;;;;;4948008;28;20240;-78
2022/09/18 08:17:23;;;;;;;5.17;1.50;;;;;;;;;;4947184;28;20276;-78
2022/09/18 08:19:49;;;;;;;7.13;1.13;;;;;;;;;;4948534;28;20201;-78
2022/09/18 08:22:15;;;;;;;2.50;1.07;;;;;;;;;;4949041;28;20189;-80
2022/09/18 08:24:41;;;;;;;4.13;1.30;;;;;;;;;;4949258;28;20226;-78
2022/09/18 08:27:07;;;;;;;7.50;1.80;;;;;;;;;;4949655;28;20237;-77
2022/09/18 08:29:33;;;;;;;7.40;1.67;;;;;;;;;;4949646;28;20189;-77
2022/09/18 08:31:59;;;;;;;3.77;1.20;;;;;;;;;;4948869;28;20716;-79
2022/09/18 08:34:26;;;;;;;4.27;1.10;;;;;;;;;;4947934;28;20585;-78
2022/09/18 08:36:52;;;;;;;7.23;1.23;;;;;;;;;;4949388;28;20292;-77
2022/09/18 08:39:18;;;;;;;4.43;1.15;;;;;;;;;;4948037;28;20273;-79
2022/09/18 08:42:04;;;;;;;3.20;1.30;;;;;;;;;;4949151;28;20636;-79
2022/09/18 08:44:32;;;;;;;3.67;1.08;;;;;;;;;;4963216;28;20252;-79
2022/09/18 08:47:15;;;;;;;4.13;1.30;;;;;;;;;;4948850;28;20237;-78
2022/09/18 08:49:47;;;;;;;4.40;1.00;;;;;;;;;;4948691;28;20205;-77
2022/09/18 08:52:15;;;;;;;3.60;1.13;;;;;;;;;;4948935;28;20185;-80
2022/09/18 08:54:59;;;;;;;3.50;1.13;;;;;;;;;;4946567;29;20531;-78
2022/09/18 08:57:32;;;;;;;6.75;2.65;;;;;;;;;;4948378;28;20182;-79
2022/09/18 08:59:58;;;;;;;6.30;1.92;;;;;;;;;;4948519;28;20193;-78
2022/09/18 09:02:35;;;;;;;4.30;1.88;;;;;;;;;;4948195;28;20186;-78
2022/09/18 09:05:03;;;;;;;6.97;1.90;;;;;;;;;;4963616;28;20617;-78
2022/09/18 09:07:29;;;;;;;5.63;1.70;;;;;;;;;;4949003;28;20193;-77
2022/09/18 09:10:13;;;;;;;4.00;1.37;;;;;;;;;;4948919;28;20206;-78
2022/09/18 09:12:54;;;;;;;13.57;5.53;;;;;;;;;;4949120;28;20178;-79
2022/09/18 09:15:34;;;;;;;28.00;9.63;;;;;;;;;;4948731;28;20201;-78
2022/09/18 09:18:17;;;;;;;12.77;4.17;;;;;;;;;;4948594;28;20560;-80
2022/09/18 09:20:53;;;;;;;6.20;2.70;;;;;;;;;;4949916;28;20178;-79
2022/09/18 09:23:34;;;;;;;6.63;2.93;;;;;;;;;;4948363;28;20173;-79
2022/09/18 09:26:14;;;;;;;6.57;3.23;;;;;;;;;;4947500;28;20205;-78
2022/09/18 09:28:58;;;;;;;4.77;1.70;;;;;;;;;;4947717;28;20193;-79
2022/09/18 09:31:26;;;;;;;4.83;1.97;;;;;;;;;;4948993;28;20197;-79
2022/09/18 09:33:55;;;;;;;4.73;2.43;;;;;;;;;;4949125;28;20194;-78
2022/09/18 09:36:27;;;;;;;4.73;1.83;;;;;;;;;;4949365;28;20205;-79
2022/09/18 09:38:53;;;;;;;5.43;2.27;;;;;;;;;;4949867;28;20190;-79
2022/09/18 09:41:19;;;;;;;8.53;3.20;;;;;;;;;;4948804;28;20244;-79
2022/09/18 09:44:00;;;;;;;8.20;2.83;;;;;;;;;;4950114;28;20952;-79
2022/09/18 09:46:38;;;;;;;6.63;2.53;;;;;;;;;;4950051;28;20227;-79
2022/09/18 09:49:07;;;;;;;10.47;3.57;;;;;;;;;;4964899;28;20189;-78
2022/09/18 09:51:45;;;;;;;5.67;2.50;;;;;;;;;;4949735;28;20228;-78
2022/09/18 09:54:12;;;;;;;6.43;2.17;;;;;;;;;;4950011;28;20696;-79
2022/09/18 09:56:42;;;;;;;6.53;2.07;;;;;;;;;;4950203;28;20220;-79
2022/09/18 09:59:11;;;;;;;3.75;1.80;;;;;;;;;;4948824;28;20723;-80
2022/09/18 10:01:44;;;;;;;6.18;2.72;;;;;;;;;;4948306;28;20193;-79
2022/09/18 10:04:18;;;;;;;6.93;2.63;;;;;;;;;;4948408;28;20269;-79
2022/09/18 10:06:49;;;;;;;2.65;1.60;;;;;;;;;;4961965;28;20747;-79
2022/09/18 10:09:23;;;;;;;5.88;2.15;;;;;;;;;;4946389;28;20194;-78
2022/09/18 10:12:03;;;;;;;5.57;2.00;;;;;;;;;;4944919;28;20566;-78
2022/09/18 10:14:30;;;;;;;2.53;1.02;;;;;;;;;;4945809;28;20260;-78
2022/09/18 10:16:57;;;;;;;3.20;1.47;;;;;;;;;;4946013;28;20489;-79
2022/09/18 10:19:25;;;;;;;6.47;1.47;;;;;;;;;;4946005;28;20185;-80
2022/09/18 10:21:52;;;;;;;4.18;1.30;;;;;;;;;;4950197;28;20197;-79
2022/09/18 10:24:40;;;;;;;3.35;1.10;;;;;;;;;;4950709;28;20708;-79
2022/09/18 10:27:13;;;;;;;3.65;1.00;;;;;;;;;;4950831;28;20256;-78
2022/09/18 10:29:39;;;;;;;2.47;0.93;;;;;;;;;;4950117;28;20249;-78
2022/09/18 10:32:06;;;;;;;4.65;1.30;;;;;;;;;;4949118;28;20248;-79
2022/09/18 10:34:35;;;;;;;4.53;1.63;;;;;;;;;;4950397;28;20181;-79
2022/09/18 10:37:01;;;;;;;5.63;2.13;;;;;;;;;;4950255;28;20209;-79
2022/09/18 10:39:32;;;;;;;5.13;2.03;;;;;;;;;;4949878;28;20189;-79
2022/09/18 10:41:59;;;;;;;4.57;1.77;;;;;;;;;;4949872;28;20181;-78
2022/09/18 10:44:30;;;;;;;8.90;3.63;;;;;;;;;;4949051;28;20177;-80
2022/09/18 10:47:14;;;;;;;6.75;2.47;;;;;;;;;;4948223;28;20225;-79
2022/09/18 10:49:49;;;;;;;10.20;3.92;;;;;;;;;;4951838;28;20298;-79
2022/09/18 10:52:21;;;;;;;7.63;3.13;;;;;;;;;;4951902;28;20177;-79
2022/09/18 10:55:16;;;;;;;16.30;6.72;;;;;;;;;;4951721;28;20209;-77
2022/09/18 10:57:45;;;;;;;6.20;2.10;;;;;;;;;;4938174;28;20198;-79
2022/09/18 11:00:11;;;;;;;3.80;1.52;;;;;;;;;;4952526;28;20189;-79
2022/09/18 11:02:46;;;;;;;4.78;1.92;;;;;;;;;;4951381;28;20213;-76
2022/09/18 11:05:17;;;;;;;5.10;1.80;;;;;;;;;;4951863;28;20186;-76
2022/09/18 11:07:47;;;;;;;5.90;1.60;;;;;;;;;;4951562;28;20185;-77
2022/09/18 11:10:15;;;;;;;3.55;1.58;;;;;;;;;;4951265;28;20205;-79
2022/09/18 11:12:46;;;;;;;3.55;1.38;;;;;;;;;;4949920;28;20233;-77
2022/09/18 11:15:16;;;;;;;2.15;1.20;;;;;;;;;;4951866;28;20260;-78
2022/09/18 11:17:48;;;;;;;2.38;1.00;;;;;;;;;;4951433;28;20721;-78
2022/09/18 11:20:23;;;;;;;2.75;1.20;;;;;;;;;;4951788;28;20667;-78
2022/09/18 11:22:50;;;;;;;1.65;1.00;;;;;;;;;;4950903;28;20209;-78
2022/09/18 11:25:19;;;;;;;2.05;0.88;;;;;;;;;;4966485;28;20634;-79
2022/09/18 11:27:47;;;;;;;2.08;1.00;;;;;;;;;;4949612;28;20185;-78
2022/09/18 11:30:14;;;;;;;2.88;1.33;;;;;;;;;;4949994;28;20222;-77
2022/09/18 11:32:40;;;;;;;1.95;0.98;;;;;;;;;;4950380;28;20229;-77
2022/09/18 11:35:13;;;;;;;6.57;1.50;;;;;;;;;;4965482;28;20273;-79
2022/09/18 11:37:43;;;;;;;2.50;0.80;;;;;;;;;;4964934;28;21024;-78
2022/09/18 11:40:24;;;;;;;2.70;0.85;;;;;;;;;;4950815;28;20213;-77
2022/09/18 11:42:52;;;;;;;4.07;0.90;;;;;;;;;;4949556;28;20197;-79
2022/09/18 11:45:37;;;;;;;13.75;6.88;;;;;;;;;;4965240;28;20212;-78
2022/09/18 11:48:27;;;;;;;9.95;4.70;;;;;;;;;;4948648;28;20237;-77
2022/09/18 11:51:00;;;;;;;8.40;2.93;;;;;;;;;;4942172;28;20699;-77
2022/09/18 11:53:27;;;;;;;14.63;5.60;;;;;;;;;;4949191;28;20178;-77
2022/09/18 11:56:10;;;;;;;15.88;6.18;;;;;;;;;;4950636;28;20201;-77
2022/09/18 11:58:36;;;;;;;15.38;6.97;;;;;;;;;;4950572;28;20723;-79
2022/09/18 12:01:10;;;;;;;8.55;3.75;;;;;;;;;;4965703;28;20197;-79
2022/09/18 12:03:48;;;;;;;8.63;4.07;;;;;;;;;;4950383;28;20192;-78
2022/09/18 12:06:27;;;;;;;15.00;6.53;;;;;;;;;;4950750;28;20252;-78
2022/09/18 12:08:58;;;;;;;12.60;5.57;;;;;;;;;;4950215;28;20193;-77
2022/09/18 12:11:29;;;;;;;18.27;6.60;;;;;;;;;;4950009;28;20209;-78
2022/09/18 12:13:59;;;;;;;12.97;5.43;;;;;;;;;;4950640;28;20182;-77
2022/09/18 12:16:44;;;;;;;11.45;5.25;;;;;;;;;;4951054;28;20688;-79
2022/09/18 12:19:17;;;;;;;8.53;4.00;;;;;;;;;;4950129;28;20312;-79
2022/09/18 12:21:43;;;;;;;8.70;3.90;;;;;;;;;;4949847;28;20527;-78
2022/09/18 12:24:13;;;;;;;13.05;6.72;;;;;;;;;;4949691;28;20193;-78
2022/09/18 12:26:43;;;;;;;12.53;6.73;;;;;;;;;;4950385;28;20209;-77
2022/09/18 12:29:15;;;;;;;13.30;5.87;;;;;;;;;;4950464;28;20186;-77
2022/09/18 12:31:52;;;;;;;6.50;3.90;;;;;;;;;;4950241;28;20197;-79
2022/09/18 12:34:24;;;;;;;5.63;3.07;;;;;;;;;;4949813;28;20174;-77
2022/09/18 12:36:50;;;;;;;1.60;0.60;;;;;;;;;;4950709;28;20272;-78
2022/09/18 12:39:32;;;;;;;2.87;1.43;;;;;;;;;;4949936;28;20182;-78
2022/09/18 12:42:16;;;;;;;1.40;0.67;;;;;;;;;;4949905;28;20189;-79
2022/09/18 12:44:57;;;;;;;2.37;1.17;;;;;;;;;;4950258;28;20317;-78
2022/09/18 12:47:49;;;;;;;2.30;0.63;;;;;;;;;;4948735;28;20208;-79
2022/09/18 12:50:18;;;;;;;1.17;0.60;;;;;;;;;;4949184;28;20205;-76
2022/09/18 12:53:01;;;;;;;2.47;1.10;;;;;;;;;;4948909;28;20182;-77
2022/09/18 12:55:50;;;;;;;2.93;1.00;;;;;;;;;;4947644;28;20202;-79
2022/09/18 12:58:19;;;;;;;3.07;0.80;;;;;;;;;;4949052;28;20181;-79
2022/09/18 13:00:46;;;;;;;3.20;1.60;;;;;;;;;;4948719;28;20186;-79
2022/09/18 13:03:29;;;;;;;1.43;0.80;;;;;;;;;;4948398;28;20193;-79
2022/09/18 13:06:12;;;;;;;2.53;0.60;;;;;;;;;;4947545;28;20776;-77
2022/09/18 13:08:44;;;;;;;4.73;1.63;;;;;;;;;;4947416;28;20197;-78
2022/09/18 13:11:14;;;;;;;2.13;0.90;;;;;;;;;;4947986;28;20232;-77
2022/09/18 13:13:46;;;;;;;1.70;0.93;;;;;;;;;;4947219;28;20783;-77
2022/09/18 13:16:14;;;;;;;2.33;1.10;;;;;;;;;;4946507;28;20672;-77
2022/09/18 13:18:43;;;;;;;3.57;0.80;;;;;;;;;;4962210;28;20289;-77
2022/09/18 13:21:16;;;;;;;2.83;1.00;;;;;;;;;;4947153;28;20276;-78
2022/09/18 13:23:43;;;;;;;3.97;1.03;;;;;;;;;;4947515;28;20196;-78
2022/09/18 13:26:11;;;;;;;1.53;1.40;;;;;;;;;;4948039;28;20214;-78
2022/09/18 13:28:39;;;;;;;3.13;1.30;;;;;;;;;;4947399;28;20189;-78
2022/09/18 13:31:14;;;;;;;3.00;1.00;;;;;;;;;;4947988;28;20206;-78
2022/09/18 13:33:52;;;;;;;2.07;0.83;;;;;;;;;;4946980;28;20185;-78
2022/09/18 13:36:23;;;;;;;0.80;0.70;;;;;;;;;;4947660;28;20205;-79
2022/09/18 13:38:49;;;;;;;1.57;0.60;;;;;;;;;;4947721;28;20178;-79
2022/09/18 13:41:16;;;;;;;1.73;0.60;;;;;;;;;;4946983;28;20188;-79
2022/09/18 13:43:43;;;;;;;2.00;0.60;;;;;;;;;;4948017;28;20722;-79
2022/09/18 13:46:30;;;;;;;3.73;1.10;;;;;;;;;;4948689;28;20236;-78
2022/09/18 13:48:57;;;;;;;3.03;0.90;;;;;;;;;;4947927;28;20204;-78
2022/09/18 13:51:25;;;;;;;1.63;0.50;;;;;;;;;;4950818;28;20205;-79
2022/09/18 13:54:09;;;;;;;2.77;0.80;;;;;;;;;;4953214;28;20221;-79
2022/09/18 13:56:54;;;;;;;1.90;0.70;;;;;;;;;;4951872;28;20746;-77
2022/09/18 13:59:22;;;;;;;1.53;0.77;;;;;;;;;;4951635;28;20604;-79
2022/09/18 14:01:54;;;;;;;3.43;0.93;;;;;;;;;;4953980;28;20190;-76
2022/09/18 14:04:39;;;;;;;2.10;0.73;;;;;;;;;;4952930;28;20185;-78
2022/09/18 14:07:17;;;;;;;2.83;0.77;;;;;;;;;;4951251;28;20623;-79
2022/09/18 14:10:00;;;;;;;2.37;0.80;;;;;;;;;;4965591;28;20607;-78
2022/09/18 14:12:26;;;;;;;1.83;0.63;;;;;;;;;;4951325;28;20268;-78
2022/09/18 14:15:11;;;;;;;3.60;0.90;;;;;;;;;;4951418;28;20185;-79
2022/09/18 14:17:37;;;;;;;1.80;0.80;;;;;;;;;;4951689;28;20204;-79
2022/09/18 14:20:17;;;;;;;2.77;0.83;;;;;;;;;;4953470;28;20197;-79
2022/09/18 14:22:44;;;;;;;2.60;1.00;;;;;;;;;;4967237;28;20189;-79
2022/09/18 14:25:11;;;;;;;1.27;0.50;;;;;;;;;;4952337;28;20200;-79
2022/09/18 14:27:54;;;;;;;1.33;0.70;;;;;;;;;;4951777;28;20319;-79
2022/09/18 14:30:25;;;;;;;2.17;0.67;;;;;;;;;;4951930;28;20212;-78
2022/09/18 14:33:02;;;;;;;1.20;0.70;;;;;;;;;;4951121;28;20276;-78
2022/09/18 14:35:34;;;;;;;5.40;1.00;;;;;;;;;;4953056;28;20205;-79
2022/09/18 14:38:00;;;;;;;2.87;1.07;;;;;;;;;;4952222;28;20276;-77
2022/09/18 14:40:26;;;;;;;3.97;1.63;;;11.70;99.90;;;;;;4951251;28;20273;-77
2022/09/18 14:42:52;;;;;;;4.47;1.03;;;11.40;99.90;;;;;;4949611;28;21164;-78
2022/09/18 14:45:17;;;;;;;3.93;0.90;;;10.80;99.90;;;;;;4950102;28;20210;-78
2022/09/18 14:47:45;;;;;;;1.50;0.77;;;;;;;;;;4950766;28;20201;-78
2022/09/18 14:50:43;;;;;;;0.97;0.63;;;;;;;;;;4950962;28;20308;-79
2022/09/18 14:53:23;;;;;;;2.90;0.97;;;;;;;;;;4943747;28;20201;-79
2022/09/18 14:55:54;;;;;;;1.80;0.97;;;;;;;;;;4951053;28;20312;-79
2022/09/18 14:58:21;;;;;;;2.90;0.93;;;;;;;;;;4950685;28;20209;-79
2022/09/18 15:00:52;;;;;;;2.97;0.77;;;;;;;;;;4950340;28;20188;-78
2022/09/18 15:03:21;;;;;;;2.07;0.93;;;;;;;;;;4950834;28;20194;-80
2022/09/18 15:05:48;;;;;;;7.03;3.97;;;;;;;;;;4950878;28;20265;-79
2022/09/18 15:08:16;;;;;;;4.83;3.17;;;;;;;;;;4964545;28;20193;-78
2022/09/18 15:10:44;;;;;;;12.83;7.27;;;;;;;;;;4948610;28;21093;-79
2022/09/18 15:13:12;;;;;;;13.07;7.87;;;;;;;;;;4947895;28;20579;-79
2022/09/18 15:15:38;;;;;;;10.70;5.77;;;;;;;;;;4947723;28;20638;-78
2022/09/18 15:18:16;;;;;;;6.40;3.20;;;;;;;;;;4948068;28;20848;-79
2022/09/18 15:20:46;;;;;;;11.37;4.70;;;;;;;;;;4947749;28;20269;-79